sensor_id;sensor_type;location;lat;lon;timestamp;P1;durP1;ratioP1;P2;durP2;ratioP2
4704;SDS011;2366;51.332;6.610;2023-06-14T05:45:27;10.10;;;4.20;;
4704;SDS011;2366;51.332;6.610;2023-06-14T05:47:53;5.57;;;3.17;;
4704;SDS011;2366;51.332;6.610;2023-06-14T05:50:19;8.73;;;2.93;;
4704;SDS011;2366;51.332;6.610;2023-06-14T05:52:45;3.30;;;3.00;;
4704;SDS011;2366;51.332;6.610;2023-06-14T05:55:11;4.50;;;2.90;;
4704;SDS011;2366;51.332;6.610;2023-06-14T05:57:37;3.40;;;2.70;;
4704;SDS011;2366;51.332;6.610;2023-06-14T06:00:02;3.23;;;2.93;;
4704;SDS011;2366;51.332;6.610;2023-06-14T06:02:36;4.60;;;3.27;;
4704;SDS011;2366;51.332;6.610;2023-06-14T06:05:01;3.30;;;3.00;;
4704;SDS011;2366;51.332;6.610;2023-06-14T06:07:27;4.43;;;2.33;;
4704;SDS011;2366;51.332;6.610;2023-06-14T06:09:52;4.87;;;2.77;;
4704;SDS011;2366;51.332;6.610;2023-06-14T06:12:18;5.20;;;2.80;;
4704;SDS011;2366;51.332;6.610;2023-06-14T06:14:43;4.43;;;2.77;;
4704;SDS011;2366;51.332;6.610;2023-06-14T06:17:08;4.37;;;2.83;;
4704;SDS011;2366;51.332;6.610;2023-06-14T06:19:34;5.53;;;4.23;;
4704;SDS011;2366;51.332;6.610;2023-06-14T06:21:59;4.60;;;3.07;;
4704;SDS011;2366;51.332;6.610;2023-06-14T06:24:25;3.13;;;2.80;;
4704;SDS011;2366;51.332;6.610;2023-06-14T06:26:50;6.00;;;2.73;;
4704;SDS011;2366;51.332;6.610;2023-06-14T06:29:16;3.03;;;2.60;;
4704;SDS011;2366;51.332;6.610;2023-06-14T06:31:41;3.97;;;3.20;;
4704;SDS011;2366;51.332;6.610;2023-06-14T06:34:06;3.27;;;2.50;;
4704;SDS011;2366;51.332;6.610;2023-06-14T06:36:32;3.10;;;2.80;;
4704;SDS011;2366;51.332;6.610;2023-06-14T06:38:57;7.80;;;2.37;;
4704;SDS011;2366;51.332;6.610;2023-06-14T06:41:23;2.77;;;2.10;;
4704;SDS011;2366;51.332;6.610;2023-06-14T06:43:48;7.43;;;2.33;;
4704;SDS011;2366;51.332;6.610;2023-06-14T06:46:13;5.30;;;2.60;;
4704;SDS011;2366;51.332;6.610;2023-06-14T06:48:39;4.63;;;2.50;;
4704;SDS011;2366;51.332;6.610;2023-06-14T06:51:04;4.30;;;2.27;;
4704;SDS011;2366;51.332;6.610;2023-06-14T06:53:30;2.40;;;2.10;;
4704;SDS011;2366;51.332;6.610;2023-06-14T06:55:56;6.33;;;2.57;;
4704;SDS011;2366;51.332;6.610;2023-06-14T06:58:21;2.73;;;2.50;;
4704;SDS011;2366;51.332;6.610;2023-06-14T07:00:47;3.27;;;2.40;;
4704;SDS011;2366;51.332;6.610;2023-06-14T07:03:12;3.60;;;2.50;;
4704;SDS011;2366;51.332;6.610;2023-06-14T07:05:38;2.87;;;1.90;;
4704;SDS011;2366;51.332;6.610;2023-06-14T07:08:03;3.17;;;2.10;;
4704;SDS011;2366;51.332;6.610;2023-06-14T07:10:29;3.13;;;2.90;;
4704;SDS011;2366;51.332;6.610;2023-06-14T07:12:54;4.10;;;1.50;;
4704;SDS011;2366;51.332;6.610;2023-06-14T07:15:19;5.90;;;2.10;;
4704;SDS011;2366;51.332;6.610;2023-06-14T07:17:45;2.20;;;1.50;;
4704;SDS011;2366;51.332;6.610;2023-06-14T07:20:10;5.47;;;2.03;;
4704;SDS011;2366;51.332;6.610;2023-06-14T07:22:40;3.70;;;2.00;;
4704;SDS011;2366;51.332;6.610;2023-06-14T07:25:08;1.70;;;1.60;;
4704;SDS011;2366;51.332;6.610;2023-06-14T07:27:34;1.80;;;1.20;;
4704;SDS011;2366;51.332;6.610;2023-06-14T07:29:59;2.00;;;1.90;;
4704;SDS011;2366;51.332;6.610;2023-06-14T07:32:25;2.37;;;1.63;;
4704;SDS011;2366;51.332;6.610;2023-06-14T07:34:50;2.73;;;1.53;;
4704;SDS011;2366;51.332;6.610;2023-06-14T07:37:15;1.37;;;1.27;;
4704;SDS011;2366;51.332;6.610;2023-06-14T07:39:41;2.70;;;1.90;;
4704;SDS011;2366;51.332;6.610;2023-06-14T07:42:06;2.50;;;1.47;;
4704;SDS011;2366;51.332;6.610;2023-06-14T07:44:32;1.47;;;1.37;;
4704;SDS011;2366;51.332;6.610;2023-06-14T07:46:57;2.30;;;1.80;;
4704;SDS011;2366;51.332;6.610;2023-06-14T07:49:25;1.13;;;1.00;;
4704;SDS011;2366;51.332;6.610;2023-06-14T07:51:50;2.60;;;1.33;;
4704;SDS011;2366;51.332;6.610;2023-06-14T07:54:16;2.20;;;1.40;;
4704;SDS011;2366;51.332;6.610;2023-06-14T07:56:41;1.73;;;1.53;;
4704;SDS011;2366;51.332;6.610;2023-06-14T07:59:07;1.43;;;1.17;;
4704;SDS011;2366;51.332;6.610;2023-06-14T08:01:32;1.20;;;1.10;;
4704;SDS011;2366;51.332;6.610;2023-06-14T08:03:58;3.63;;;1.93;;
4704;SDS011;2366;51.332;6.610;2023-06-14T08:06:23;1.40;;;1.30;;
4704;SDS011;2366;51.332;6.610;2023-06-14T08:08:50;1.83;;;1.13;;
4704;SDS011;2366;51.332;6.610;2023-06-14T08:11:15;2.10;;;1.40;;
4704;SDS011;2366;51.332;6.610;2023-06-14T08:13:41;1.60;;;1.50;;
4704;SDS011;2366;51.332;6.610;2023-06-14T08:16:06;0.80;;;0.80;;
4704;SDS011;2366;51.332;6.610;2023-06-14T08:18:31;1.27;;;1.20;;
4704;SDS011;2366;51.332;6.610;2023-06-14T08:20:57;2.33;;;1.37;;
4704;SDS011;2366;51.332;6.610;2023-06-14T08:23:24;1.40;;;1.30;;
4704;SDS011;2366;51.332;6.610;2023-06-14T08:25:49;1.37;;;1.27;;
4704;SDS011;2366;51.332;6.610;2023-06-14T08:28:15;10.13;;;1.03;;
4704;SDS011;2366;51.332;6.610;2023-06-14T08:30:41;1.07;;;0.83;;
4704;SDS011;2366;51.332;6.610;2023-06-14T08:33:07;2.37;;;1.57;;
4704;SDS011;2366;51.332;6.610;2023-06-14T08:35:32;2.10;;;0.77;;
4704;SDS011;2366;51.332;6.610;2023-06-14T08:37:58;1.27;;;1.17;;
4704;SDS011;2366;51.332;6.610;2023-06-14T08:40:23;8.17;;;1.43;;
4704;SDS011;2366;51.332;6.610;2023-06-14T08:42:52;3.27;;;1.17;;
4704;SDS011;2366;51.332;6.610;2023-06-14T08:45:20;3.00;;;1.10;;
4704;SDS011;2366;51.332;6.610;2023-06-14T08:47:47;3.03;;;1.17;;
4704;SDS011;2366;51.332;6.610;2023-06-14T08:50:20;3.70;;;1.80;;
4704;SDS011;2366;51.332;6.610;2023-06-14T08:52:51;2.63;;;1.80;;
4704;SDS011;2366;51.332;6.610;2023-06-14T08:55:20;4.67;;;1.30;;
4704;SDS011;2366;51.332;6.610;2023-06-14T08:57:52;3.73;;;1.07;;
4704;SDS011;2366;51.332;6.610;2023-06-14T09:00:19;4.60;;;2.10;;
4704;SDS011;2366;51.332;6.610;2023-06-14T09:02:46;5.03;;;1.40;;
4704;SDS011;2366;51.332;6.610;2023-06-14T09:05:12;1.83;;;1.33;;
4704;SDS011;2366;51.332;6.610;2023-06-14T09:07:39;2.93;;;1.50;;
4704;SDS011;2366;51.332;6.610;2023-06-14T09:10:07;1.37;;;1.27;;
4704;SDS011;2366;51.332;6.610;2023-06-14T09:12:35;1.93;;;1.10;;
4704;SDS011;2366;51.332;6.610;2023-06-14T09:15:01;1.63;;;1.30;;
4704;SDS011;2366;51.332;6.610;2023-06-14T09:17:31;1.27;;;1.13;;
4704;SDS011;2366;51.332;6.610;2023-06-14T09:19:58;2.33;;;1.87;;
4704;SDS011;2366;51.332;6.610;2023-06-14T09:22:23;1.47;;;1.30;;
4704;SDS011;2366;51.332;6.610;2023-06-14T09:24:49;2.13;;;1.70;;
4704;SDS011;2366;51.332;6.610;2023-06-14T09:27:15;1.50;;;1.40;;
4704;SDS011;2366;51.332;6.610;2023-06-14T09:29:41;1.70;;;1.60;;
4704;SDS011;2366;51.332;6.610;2023-06-14T09:32:06;1.70;;;1.33;;
4704;SDS011;2366;51.332;6.610;2023-06-14T09:34:32;1.13;;;1.03;;
4704;SDS011;2366;51.332;6.610;2023-06-14T09:36:59;11.00;;;1.60;;
4704;SDS011;2366;51.332;6.610;2023-06-14T09:39:25;5.60;;;1.60;;
4704;SDS011;2366;51.332;6.610;2023-06-14T09:41:52;2.80;;;1.40;;
4704;SDS011;2366;51.332;6.610;2023-06-14T09:44:17;2.73;;;1.60;;
4704;SDS011;2366;51.332;6.610;2023-06-14T09:46:43;2.30;;;1.80;;
4704;SDS011;2366;51.332;6.610;2023-06-14T09:49:09;1.90;;;1.07;;
4704;SDS011;2366;51.332;6.610;2023-06-14T09:51:34;1.70;;;1.60;;
4704;SDS011;2366;51.332;6.610;2023-06-14T09:54:07;3.40;;;1.30;;
4704;SDS011;2366;51.332;6.610;2023-06-14T09:56:41;2.53;;;1.60;;
4704;SDS011;2366;51.332;6.610;2023-06-14T09:59:09;2.60;;;1.10;;
4704;SDS011;2366;51.332;6.610;2023-06-14T10:01:41;1.60;;;1.50;;
4704;SDS011;2366;51.332;6.610;2023-06-14T10:04:07;1.37;;;1.13;;
4704;SDS011;2366;51.332;6.610;2023-06-14T10:06:38;2.27;;;1.87;;
4704;SDS011;2366;51.332;6.610;2023-06-14T10:09:07;2.73;;;1.13;;
4704;SDS011;2366;51.332;6.610;2023-06-14T10:11:33;1.80;;;1.67;;
4704;SDS011;2366;51.332;6.610;2023-06-14T10:14:00;4.23;;;1.63;;
4704;SDS011;2366;51.332;6.610;2023-06-14T10:16:30;1.87;;;1.60;;
4704;SDS011;2366;51.332;6.610;2023-06-14T10:21:52;1.67;;;1.17;;
4704;SDS011;2366;51.332;6.610;2023-06-14T10:24:33;1.50;;;1.40;;
4704;SDS011;2366;51.332;6.610;2023-06-14T10:27:04;1.43;;;1.33;;
4704;SDS011;2366;51.332;6.610;2023-06-14T10:29:35;4.57;;;1.93;;
4704;SDS011;2366;51.332;6.610;2023-06-14T10:32:26;1.70;;;1.20;;
4704;SDS011;2366;51.332;6.610;2023-06-14T10:34:56;1.37;;;1.27;;
4704;SDS011;2366;51.332;6.610;2023-06-14T10:37:25;1.57;;;1.30;;
4704;SDS011;2366;51.332;6.610;2023-06-14T10:39:50;1.43;;;1.33;;
4704;SDS011;2366;51.332;6.610;2023-06-14T10:42:16;2.10;;;1.53;;
4704;SDS011;2366;51.332;6.610;2023-06-14T10:44:43;1.60;;;1.50;;
4704;SDS011;2366;51.332;6.610;2023-06-14T10:50:04;3.80;;;1.37;;
4704;SDS011;2366;51.332;6.610;2023-06-14T10:52:35;1.03;;;0.93;;
4704;SDS011;2366;51.332;6.610;2023-06-14T10:55:13;2.87;;;1.83;;
4704;SDS011;2366;51.332;6.610;2023-06-14T10:57:43;2.03;;;1.27;;
4704;SDS011;2366;51.332;6.610;2023-06-14T11:00:16;2.50;;;1.73;;
4704;SDS011;2366;51.332;6.610;2023-06-14T11:11:13;4.47;;;1.73;;
4704;SDS011;2366;51.332;6.610;2023-06-14T11:13:39;3.30;;;1.10;;
4704;SDS011;2366;51.332;6.610;2023-06-14T11:16:17;2.23;;;1.13;;
4704;SDS011;2366;51.332;6.610;2023-06-14T11:18:45;1.30;;;1.20;;
4704;SDS011;2366;51.332;6.610;2023-06-14T11:21:11;12.13;;;2.67;;
4704;SDS011;2366;51.332;6.610;2023-06-14T11:23:40;4.00;;;1.43;;
4704;SDS011;2366;51.332;6.610;2023-06-14T11:26:06;3.73;;;1.40;;
4704;SDS011;2366;51.332;6.610;2023-06-14T11:28:38;1.57;;;1.47;;
4704;SDS011;2366;51.332;6.610;2023-06-14T11:31:05;2.40;;;1.30;;
4704;SDS011;2366;51.332;6.610;2023-06-14T11:33:30;1.37;;;1.27;;
4704;SDS011;2366;51.332;6.610;2023-06-14T11:35:56;7.50;;;1.27;;
4704;SDS011;2366;51.332;6.610;2023-06-14T11:38:21;2.30;;;1.70;;
4704;SDS011;2366;51.332;6.610;2023-06-14T11:40:47;3.63;;;1.93;;
4704;SDS011;2366;51.332;6.610;2023-06-14T11:43:12;2.73;;;1.10;;
4704;SDS011;2366;51.332;6.610;2023-06-14T11:45:38;5.43;;;1.63;;
4704;SDS011;2366;51.332;6.610;2023-06-14T11:48:04;13.03;;;2.27;;
4704;SDS011;2366;51.332;6.610;2023-06-14T11:50:30;1.30;;;0.90;;
4704;SDS011;2366;51.332;6.610;2023-06-14T11:52:57;2.50;;;1.27;;
4704;SDS011;2366;51.332;6.610;2023-06-14T11:55:25;9.30;;;1.37;;
4704;SDS011;2366;51.332;6.610;2023-06-14T11:57:50;1.40;;;1.30;;
4704;SDS011;2366;51.332;6.610;2023-06-14T12:00:17;2.90;;;1.23;;
4704;SDS011;2366;51.332;6.610;2023-06-14T12:02:43;3.27;;;1.60;;
4704;SDS011;2366;51.332;6.610;2023-06-14T12:05:20;1.10;;;1.00;;
4704;SDS011;2366;51.332;6.610;2023-06-14T12:07:46;1.27;;;1.17;;
4704;SDS011;2366;51.332;6.610;2023-06-14T12:10:12;3.60;;;1.10;;
4704;SDS011;2366;51.332;6.610;2023-06-14T12:12:39;2.60;;;0.93;;
4704;SDS011;2366;51.332;6.610;2023-06-14T12:15:06;2.07;;;1.23;;
4704;SDS011;2366;51.332;6.610;2023-06-14T12:17:33;1.70;;;1.60;;
4704;SDS011;2366;51.332;6.610;2023-06-14T12:20:04;2.57;;;1.40;;
4704;SDS011;2366;51.332;6.610;2023-06-14T12:22:34;4.40;;;1.40;;
4704;SDS011;2366;51.332;6.610;2023-06-14T12:25:00;4.23;;;1.40;;
4704;SDS011;2366;51.332;6.610;2023-06-14T12:27:25;1.17;;;1.07;;
4704;SDS011;2366;51.332;6.610;2023-06-14T12:30:03;1.80;;;1.70;;
4704;SDS011;2366;51.332;6.610;2023-06-14T12:32:30;3.73;;;1.97;;
4704;SDS011;2366;51.332;6.610;2023-06-14T12:34:55;3.43;;;1.93;;
4704;SDS011;2366;51.332;6.610;2023-06-14T12:37:21;2.97;;;1.30;;
4704;SDS011;2366;51.332;6.610;2023-06-14T12:39:46;1.63;;;1.53;;
4704;SDS011;2366;51.332;6.610;2023-06-14T12:42:12;1.57;;;1.43;;
4704;SDS011;2366;51.332;6.610;2023-06-14T12:44:39;1.27;;;1.10;;
4704;SDS011;2366;51.332;6.610;2023-06-14T12:47:06;2.10;;;1.20;;
4704;SDS011;2366;51.332;6.610;2023-06-14T12:49:34;1.37;;;1.27;;
4704;SDS011;2366;51.332;6.610;2023-06-14T12:52:00;1.67;;;1.53;;
4704;SDS011;2366;51.332;6.610;2023-06-14T12:54:25;3.33;;;1.50;;
4704;SDS011;2366;51.332;6.610;2023-06-14T12:56:51;2.30;;;1.10;;
4704;SDS011;2366;51.332;6.610;2023-06-14T12:59:17;2.50;;;1.27;;
4704;SDS011;2366;51.332;6.610;2023-06-14T13:01:43;5.37;;;2.10;;
4704;SDS011;2366;51.332;6.610;2023-06-14T13:04:15;3.58;;;2.00;;
4704;SDS011;2366;51.332;6.610;2023-06-14T13:06:40;2.07;;;1.97;;
4704;SDS011;2366;51.332;6.610;2023-06-14T13:09:05;3.03;;;1.07;;
4704;SDS011;2366;51.332;6.610;2023-06-14T13:11:31;4.20;;;1.47;;
4704;SDS011;2366;51.332;6.610;2023-06-14T13:13:56;1.30;;;1.20;;
4704;SDS011;2366;51.332;6.610;2023-06-14T13:16:22;2.70;;;1.27;;
4704;SDS011;2366;51.332;6.610;2023-06-14T13:18:47;1.77;;;1.37;;
4704;SDS011;2366;51.332;6.610;2023-06-14T13:21:12;1.40;;;1.30;;
4704;SDS011;2366;51.332;6.610;2023-06-14T13:23:38;1.20;;;1.20;;
4704;SDS011;2366;51.332;6.610;2023-06-14T13:26:03;4.47;;;1.50;;
4704;SDS011;2366;51.332;6.610;2023-06-14T13:28:28;4.20;;;1.40;;
4704;SDS011;2366;51.332;6.610;2023-06-14T13:30:54;1.53;;;1.10;;
4704;SDS011;2366;51.332;6.610;2023-06-14T13:33:20;6.33;;;1.80;;
4704;SDS011;2366;51.332;6.610;2023-06-14T13:35:46;3.10;;;1.40;;
4704;SDS011;2366;51.332;6.610;2023-06-14T13:38:11;2.43;;;1.10;;
4704;SDS011;2366;51.332;6.610;2023-06-14T13:40:37;1.73;;;1.17;;
4704;SDS011;2366;51.332;6.610;2023-06-14T13:43:02;2.67;;;1.30;;
4704;SDS011;2366;51.332;6.610;2023-06-14T13:45:28;1.40;;;1.30;;
4704;SDS011;2366;51.332;6.610;2023-06-14T13:47:53;3.17;;;1.10;;
4704;SDS011;2366;51.332;6.610;2023-06-14T13:50:19;1.50;;;1.40;;
4704;SDS011;2366;51.332;6.610;2023-06-14T13:52:45;3.20;;;1.30;;
4704;SDS011;2366;51.332;6.610;2023-06-14T13:55:11;3.00;;;1.80;;
4704;SDS011;2366;51.332;6.610;2023-06-14T13:57:36;3.83;;;1.53;;
4704;SDS011;2366;51.332;6.610;2023-06-14T14:00:02;1.70;;;1.60;;
4704;SDS011;2366;51.332;6.610;2023-06-14T14:02:28;7.03;;;1.20;;
4704;SDS011;2366;51.332;6.610;2023-06-14T14:04:54;12.27;;;2.10;;
4704;SDS011;2366;51.332;6.610;2023-06-14T14:07:20;2.47;;;1.77;;
4704;SDS011;2366;51.332;6.610;2023-06-14T14:09:46;3.17;;;1.67;;
4704;SDS011;2366;51.332;6.610;2023-06-14T14:12:12;1.87;;;1.77;;
4704;SDS011;2366;51.332;6.610;2023-06-14T14:14:39;2.20;;;2.00;;
4704;SDS011;2366;51.332;6.610;2023-06-14T14:17:04;2.47;;;2.10;;
4704;SDS011;2366;51.332;6.610;2023-06-14T14:19:30;2.43;;;2.23;;
4704;SDS011;2366;51.332;6.610;2023-06-14T14:21:55;2.60;;;2.00;;
4704;SDS011;2366;51.332;6.610;2023-06-14T14:24:21;2.10;;;1.70;;
4704;SDS011;2366;51.332;6.610;2023-06-14T14:26:46;2.17;;;1.97;;
4704;SDS011;2366;51.332;6.610;2023-06-14T14:29:15;2.93;;;1.80;;
4704;SDS011;2366;51.332;6.610;2023-06-14T14:31:41;2.30;;;1.87;;
4704;SDS011;2366;51.332;6.610;2023-06-14T14:34:07;2.30;;;1.90;;
4704;SDS011;2366;51.332;6.610;2023-06-14T14:36:32;4.40;;;1.70;;
4704;SDS011;2366;51.332;6.610;2023-06-14T14:38:59;3.13;;;1.60;;
4704;SDS011;2366;51.332;6.610;2023-06-14T14:41:24;2.00;;;1.57;;
4704;SDS011;2366;51.332;6.610;2023-06-14T14:43:50;2.00;;;1.90;;
4704;SDS011;2366;51.332;6.610;2023-06-14T14:46:15;5.80;;;2.10;;
4704;SDS011;2366;51.332;6.610;2023-06-14T14:48:41;3.90;;;1.93;;
4704;SDS011;2366;51.332;6.610;2023-06-14T14:51:07;9.33;;;1.70;;
4704;SDS011;2366;51.332;6.610;2023-06-14T14:53:32;2.90;;;2.70;;
4704;SDS011;2366;51.332;6.610;2023-06-14T14:55:57;3.43;;;2.17;;
4704;SDS011;2366;51.332;6.610;2023-06-14T14:58:23;2.03;;;1.83;;
4704;SDS011;2366;51.332;6.610;2023-06-14T15:00:48;2.57;;;1.70;;
4704;SDS011;2366;51.332;6.610;2023-06-14T15:03:14;1.87;;;1.77;;
4704;SDS011;2366;51.332;6.610;2023-06-14T15:05:39;4.70;;;1.97;;
4704;SDS011;2366;51.332;6.610;2023-06-14T15:08:05;3.63;;;1.60;;
4704;SDS011;2366;51.332;6.610;2023-06-14T15:10:36;2.17;;;1.97;;
4704;SDS011;2366;51.332;6.610;2023-06-14T15:13:09;1.97;;;1.77;;
4704;SDS011;2366;51.332;6.610;2023-06-14T15:15:35;7.17;;;1.67;;
4704;SDS011;2366;51.332;6.610;2023-06-14T15:18:01;1.83;;;1.70;;
4704;SDS011;2366;51.332;6.610;2023-06-14T15:20:26;1.60;;;1.50;;
4704;SDS011;2366;51.332;6.610;2023-06-14T15:22:52;6.47;;;1.87;;
4704;SDS011;2366;51.332;6.610;2023-06-14T15:25:20;2.47;;;1.80;;
4704;SDS011;2366;51.332;6.610;2023-06-14T15:27:46;2.23;;;1.93;;
4704;SDS011;2366;51.332;6.610;2023-06-14T15:30:11;2.00;;;1.80;;
4704;SDS011;2366;51.332;6.610;2023-06-14T15:32:37;1.63;;;1.50;;
4704;SDS011;2366;51.332;6.610;2023-06-14T15:35:03;1.77;;;1.67;;
4704;SDS011;2366;51.332;6.610;2023-06-14T15:37:28;1.50;;;1.40;;
4704;SDS011;2366;51.332;6.610;2023-06-14T15:39:54;2.13;;;1.90;;
4704;SDS011;2366;51.332;6.610;2023-06-14T15:42:19;2.30;;;2.13;;
4704;SDS011;2366;51.332;6.610;2023-06-14T15:44:44;1.73;;;1.57;;
4704;SDS011;2366;51.332;6.610;2023-06-14T15:47:11;2.40;;;1.80;;
4704;SDS011;2366;51.332;6.610;2023-06-14T15:49:37;1.70;;;1.60;;
4704;SDS011;2366;51.332;6.610;2023-06-14T15:52:02;3.70;;;2.63;;
4704;SDS011;2366;51.332;6.610;2023-06-14T15:54:28;2.03;;;1.93;;
4704;SDS011;2366;51.332;6.610;2023-06-14T15:56:53;2.23;;;1.90;;
4704;SDS011;2366;51.332;6.610;2023-06-14T15:59:18;1.83;;;1.73;;
4704;SDS011;2366;51.332;6.610;2023-06-14T16:01:44;2.17;;;1.97;;
4704;SDS011;2366;51.332;6.610;2023-06-14T16:04:09;1.40;;;1.30;;
4704;SDS011;2366;51.332;6.610;2023-06-14T16:06:34;2.50;;;2.00;;
4704;SDS011;2366;51.332;6.610;2023-06-14T16:09:01;1.97;;;1.87;;
4704;SDS011;2366;51.332;6.610;2023-06-14T16:11:28;1.80;;;1.70;;
4704;SDS011;2366;51.332;6.610;2023-06-14T16:13:54;2.80;;;2.60;;
4704;SDS011;2366;51.332;6.610;2023-06-14T16:16:20;6.60;;;2.30;;
4704;SDS011;2366;51.332;6.610;2023-06-14T16:18:47;3.40;;;1.87;;
4704;SDS011;2366;51.332;6.610;2023-06-14T16:21:12;2.53;;;2.27;;
4704;SDS011;2366;51.332;6.610;2023-06-14T16:23:38;3.20;;;2.10;;
4704;SDS011;2366;51.332;6.610;2023-06-14T16:26:03;2.13;;;1.80;;
4704;SDS011;2366;51.332;6.610;2023-06-14T16:28:29;2.03;;;1.90;;
4704;SDS011;2366;51.332;6.610;2023-06-14T16:30:55;8.70;;;2.10;;
4704;SDS011;2366;51.332;6.610;2023-06-14T16:33:21;4.70;;;1.50;;
4704;SDS011;2366;51.332;6.610;2023-06-14T16:35:46;2.10;;;2.00;;
4704;SDS011;2366;51.332;6.610;2023-06-14T16:38:12;3.73;;;1.97;;
4704;SDS011;2366;51.332;6.610;2023-06-14T16:40:37;3.60;;;1.90;;
4704;SDS011;2366;51.332;6.610;2023-06-14T16:43:02;1.87;;;1.70;;
4704;SDS011;2366;51.332;6.610;2023-06-14T16:45:28;2.20;;;2.00;;
4704;SDS011;2366;51.332;6.610;2023-06-14T16:47:54;2.40;;;1.70;;
4704;SDS011;2366;51.332;6.610;2023-06-14T16:50:19;2.20;;;2.00;;
4704;SDS011;2366;51.332;6.610;2023-06-14T16:52:45;3.80;;;1.70;;
4704;SDS011;2366;51.332;6.610;2023-06-14T16:55:10;2.67;;;2.27;;
4704;SDS011;2366;51.332;6.610;2023-06-14T16:57:37;2.43;;;1.97;;
4704;SDS011;2366;51.332;6.610;2023-06-14T17:00:04;4.03;;;1.90;;
4704;SDS011;2366;51.332;6.610;2023-06-14T17:02:30;13.33;;;2.83;;
4704;SDS011;2366;51.332;6.610;2023-06-14T17:04:55;2.50;;;2.30;;
4704;SDS011;2366;51.332;6.610;2023-06-14T17:07:20;3.17;;;2.30;;
4704;SDS011;2366;51.332;6.610;2023-06-14T17:09:46;2.70;;;2.20;;
4704;SDS011;2366;51.332;6.610;2023-06-14T17:12:12;4.93;;;2.17;;
4704;SDS011;2366;51.332;6.610;2023-06-14T17:14:38;7.60;;;3.00;;
4704;SDS011;2366;51.332;6.610;2023-06-14T17:17:03;2.10;;;2.00;;
4704;SDS011;2366;51.332;6.610;2023-06-14T17:19:29;5.20;;;2.30;;
4704;SDS011;2366;51.332;6.610;2023-06-14T17:21:55;5.23;;;1.90;;
4704;SDS011;2366;51.332;6.610;2023-06-14T17:24:20;3.93;;;2.43;;
4704;SDS011;2366;51.332;6.610;2023-06-14T17:26:45;3.00;;;2.80;;
4704;SDS011;2366;51.332;6.610;2023-06-14T17:29:11;3.57;;;2.20;;
4704;SDS011;2366;51.332;6.610;2023-06-14T17:31:36;3.87;;;1.90;;
4704;SDS011;2366;51.332;6.610;2023-06-14T17:34:02;2.17;;;2.07;;
4704;SDS011;2366;51.332;6.610;2023-06-14T17:36:27;2.07;;;1.83;;
4704;SDS011;2366;51.332;6.610;2023-06-14T17:38:53;4.10;;;2.23;;
4704;SDS011;2366;51.332;6.610;2023-06-14T17:41:18;2.67;;;2.43;;
4704;SDS011;2366;51.332;6.610;2023-06-14T17:43:44;2.57;;;2.37;;
4704;SDS011;2366;51.332;6.610;2023-06-14T17:46:09;3.67;;;2.40;;
4704;SDS011;2366;51.332;6.610;2023-06-14T17:48:35;3.97;;;2.37;;
4704;SDS011;2366;51.332;6.610;2023-06-14T17:51:18;5.23;;;1.93;;
4704;SDS011;2366;51.332;6.610;2023-06-14T17:53:45;6.23;;;2.70;;
4704;SDS011;2366;51.332;6.610;2023-06-14T17:56:10;3.90;;;2.33;;
4704;SDS011;2366;51.332;6.610;2023-06-14T17:58:36;2.00;;;1.80;;
4704;SDS011;2366;51.332;6.610;2023-06-14T18:01:01;3.83;;;2.00;;
4704;SDS011;2366;51.332;6.610;2023-06-14T18:03:27;2.90;;;1.97;;
4704;SDS011;2366;51.332;6.610;2023-06-14T18:05:52;3.10;;;1.60;;
4704;SDS011;2366;51.332;6.610;2023-06-14T18:08:17;3.47;;;2.13;;
4704;SDS011;2366;51.332;6.610;2023-06-14T18:10:43;7.10;;;1.90;;
4704;SDS011;2366;51.332;6.610;2023-06-14T18:13:08;2.33;;;2.13;;
4704;SDS011;2366;51.332;6.610;2023-06-14T18:15:34;2.07;;;1.87;;
4704;SDS011;2366;51.332;6.610;2023-06-14T18:17:59;2.20;;;2.00;;
4704;SDS011;2366;51.332;6.610;2023-06-14T18:20:25;1.50;;;1.40;;
4704;SDS011;2366;51.332;6.610;2023-06-14T18:22:50;8.80;;;2.37;;
4704;SDS011;2366;51.332;6.610;2023-06-14T18:25:16;3.63;;;2.37;;
4704;SDS011;2366;51.332;6.610;2023-06-14T18:27:44;4.20;;;1.77;;
4704;SDS011;2366;51.332;6.610;2023-06-14T18:30:10;2.77;;;2.00;;
4704;SDS011;2366;51.332;6.610;2023-06-14T18:32:36;2.47;;;2.00;;
4704;SDS011;2366;51.332;6.610;2023-06-14T18:35:02;2.10;;;1.83;;
4704;SDS011;2366;51.332;6.610;2023-06-14T18:37:27;3.10;;;2.70;;
4704;SDS011;2366;51.332;6.610;2023-06-14T18:39:53;6.10;;;2.30;;
4704;SDS011;2366;51.332;6.610;2023-06-14T18:42:19;2.27;;;1.93;;
4704;SDS011;2366;51.332;6.610;2023-06-14T18:44:47;1.60;;;1.50;;
4704;SDS011;2366;51.332;6.610;2023-06-14T18:47:12;2.50;;;1.90;;
4704;SDS011;2366;51.332;6.610;2023-06-14T18:49:38;2.63;;;2.00;;
4704;SDS011;2366;51.332;6.610;2023-06-14T18:52:04;3.03;;;2.03;;
4704;SDS011;2366;51.332;6.610;2023-06-14T18:54:30;2.37;;;2.10;;
4704;SDS011;2366;51.332;6.610;2023-06-14T18:56:55;3.77;;;2.00;;
4704;SDS011;2366;51.332;6.610;2023-06-14T18:59:20;2.30;;;2.00;;
4704;SDS011;2366;51.332;6.610;2023-06-14T19:01:46;1.90;;;1.80;;
4704;SDS011;2366;51.332;6.610;2023-06-14T19:04:11;4.43;;;2.17;;
4704;SDS011;2366;51.332;6.610;2023-06-14T19:06:37;3.20;;;2.10;;
4704;SDS011;2366;51.332;6.610;2023-06-14T19:09:03;3.17;;;2.27;;
4704;SDS011;2366;51.332;6.610;2023-06-14T19:11:29;3.83;;;1.80;;
4704;SDS011;2366;51.332;6.610;2023-06-14T19:13:54;3.33;;;2.23;;
4704;SDS011;2366;51.332;6.610;2023-06-14T19:16:19;2.47;;;2.27;;
4704;SDS011;2366;51.332;6.610;2023-06-14T19:18:54;3.60;;;1.80;;
4704;SDS011;2366;51.332;6.610;2023-06-14T19:21:22;2.17;;;1.90;;
4704;SDS011;2366;51.332;6.610;2023-06-14T19:23:48;3.23;;;2.10;;
4704;SDS011;2366;51.332;6.610;2023-06-14T19:26:14;2.30;;;1.80;;
4704;SDS011;2366;51.332;6.610;2023-06-14T19:28:39;2.50;;;1.73;;
4704;SDS011;2366;51.332;6.610;2023-06-14T19:31:05;8.60;;;1.60;;
4704;SDS011;2366;51.332;6.610;2023-06-14T19:33:30;2.13;;;1.93;;
4704;SDS011;2366;51.332;6.610;2023-06-14T19:35:55;1.50;;;1.40;;
4704;SDS011;2366;51.332;6.610;2023-06-14T19:38:21;12.43;;;2.30;;
4704;SDS011;2366;51.332;6.610;2023-06-14T19:40:46;1.80;;;1.63;;
4704;SDS011;2366;51.332;6.610;2023-06-14T19:43:12;8.70;;;2.17;;
4704;SDS011;2366;51.332;6.610;2023-06-14T19:45:37;1.80;;;1.70;;
4704;SDS011;2366;51.332;6.610;2023-06-14T19:48:03;2.50;;;2.10;;
4704;SDS011;2366;51.332;6.610;2023-06-14T19:50:29;1.70;;;1.60;;
4704;SDS011;2366;51.332;6.610;2023-06-14T19:52:54;2.13;;;1.93;;
4704;SDS011;2366;51.332;6.610;2023-06-14T19:55:20;2.80;;;2.03;;
4704;SDS011;2366;51.332;6.610;2023-06-14T19:57:45;1.60;;;1.50;;
4704;SDS011;2366;51.332;6.610;2023-06-14T20:00:11;2.47;;;1.93;;
4704;SDS011;2366;51.332;6.610;2023-06-14T20:02:37;4.00;;;2.20;;
4704;SDS011;2366;51.332;6.610;2023-06-14T20:05:03;2.37;;;1.80;;
4704;SDS011;2366;51.332;6.610;2023-06-14T20:07:29;3.47;;;2.10;;
4704;SDS011;2366;51.332;6.610;2023-06-14T20:09:56;2.90;;;1.70;;
4704;SDS011;2366;51.332;6.610;2023-06-14T20:12:21;2.30;;;2.10;;
4704;SDS011;2366;51.332;6.610;2023-06-14T20:14:47;1.47;;;1.37;;
4704;SDS011;2366;51.332;6.610;2023-06-14T20:17:12;2.40;;;2.20;;
4704;SDS011;2366;51.332;6.610;2023-06-14T20:19:38;1.83;;;1.73;;
4704;SDS011;2366;51.332;6.610;2023-06-14T20:22:03;2.97;;;1.87;;
4704;SDS011;2366;51.332;6.610;2023-06-14T20:24:29;2.10;;;1.80;;
4704;SDS011;2366;51.332;6.610;2023-06-14T20:26:54;2.13;;;1.90;;
4704;SDS011;2366;51.332;6.610;2023-06-14T20:29:19;1.50;;;1.40;;
4704;SDS011;2366;51.332;6.610;2023-06-14T20:31:45;4.17;;;2.30;;
4704;SDS011;2366;51.332;6.610;2023-06-14T20:34:10;1.40;;;1.30;;
4704;SDS011;2366;51.332;6.610;2023-06-14T20:36:36;5.57;;;1.80;;
4704;SDS011;2366;51.332;6.610;2023-06-14T20:39:02;2.37;;;2.17;;
4704;SDS011;2366;51.332;6.610;2023-06-14T20:41:27;1.90;;;1.70;;
4704;SDS011;2366;51.332;6.610;2023-06-14T20:43:53;3.30;;;1.50;;
4704;SDS011;2366;51.332;6.610;2023-06-14T20:46:22;2.03;;;1.60;;
4704;SDS011;2366;51.332;6.610;2023-06-14T20:48:52;4.40;;;2.37;;
4704;SDS011;2366;51.332;6.610;2023-06-14T20:51:18;2.20;;;2.10;;
4704;SDS011;2366;51.332;6.610;2023-06-14T20:53:43;2.53;;;1.83;;
4704;SDS011;2366;51.332;6.610;2023-06-14T20:56:09;3.67;;;1.70;;
4704;SDS011;2366;51.332;6.610;2023-06-14T20:58:35;3.97;;;1.63;;
4704;SDS011;2366;51.332;6.610;2023-06-14T21:01:01;2.57;;;2.13;;
4704;SDS011;2366;51.332;6.610;2023-06-14T21:03:28;2.10;;;1.90;;
4704;SDS011;2366;51.332;6.610;2023-06-14T21:05:53;4.23;;;1.50;;
4704;SDS011;2366;51.332;6.610;2023-06-14T21:08:19;3.10;;;1.83;;